Time;durP1;ratioP1;P1;durP2;ratioP2;P2;SDS_P1;SDS_P2;PMS_P1;PMS_P2;Temp;Humidity;BMP_temperature;BMP_pressure;BME280_temperature;BME280_humidity;BME280_pressure;Samples;Min_cycle;Max_cycle;Signal;HPM_P1;HPM_P2
2023/04/18 00:00:17;;;;;;;4.62;2.30;;;;;;;23.88;40.09;99426.62;4332428;33;33998;-61
2023/04/18 00:02:44;;;;;;;7.97;2.42;;;;;;;23.87;40.05;99427.66;4332384;33;34636;-61
2023/04/18 00:05:12;;;;;;;5.60;2.10;;;;;;;23.87;40.06;99428.47;4332260;33;33612;-61
2023/04/18 00:07:40;;;;;;;6.97;2.30;;;;;;;23.87;40.09;99431.22;4332310;33;33995;-61
2023/04/18 00:10:07;;;;;;;6.78;2.75;;;;;;;23.87;40.05;99433.09;4332287;33;33607;-61
2023/04/18 00:12:35;;;;;;;7.93;2.65;;;;;;;23.88;40.05;99429.34;4332288;33;33969;-61
2023/04/18 00:15:03;;;;;;;3.85;2.28;;;;;;;23.87;40.04;99430.37;4332367;33;33575;-61
2023/04/18 00:17:31;;;;;;;4.55;2.22;;;;;;;23.87;40.05;99422.22;4319085;33;34693;-61
2023/04/18 00:20:01;;;;;;;6.10;2.30;;;;;;;23.87;40.09;99430.37;4332340;33;33594;-61
2023/04/18 00:22:29;;;;;;;5.80;2.45;;;;;;;23.86;40.10;99431.47;4332160;33;34104;-61
2023/04/18 00:24:57;;;;;;;4.87;2.55;;;;;;;23.86;40.16;99434.19;4332327;33;33274;-61
2023/04/18 00:27:25;;;;;;;4.00;2.00;;;;;;;23.85;40.22;99429.81;4332180;33;33042;-61
2023/04/18 00:29:52;;;;;;;4.45;2.33;;;;;;;23.83;40.34;99430.06;4332316;33;34188;-61
2023/04/18 00:32:20;;;;;;;6.35;2.30;;;;;;;23.82;40.43;99431.09;4332171;33;33842;-61
2023/04/18 00:34:47;;;;;;;3.97;2.00;;;;;;;23.82;40.44;99435.72;4332249;33;32966;-61
2023/04/18 00:37:14;;;;;;;3.90;2.28;;;;;;;23.79;40.45;99431.59;4331531;33;33994;-61
2023/04/18 00:39:42;;;;;;;5.28;2.45;;;;;;;23.80;40.44;99435.13;4332109;33;34173;-61
2023/04/18 00:42:10;;;;;;;5.47;2.28;;;;;;;23.79;40.49;99428.03;4318826;33;33035;-61
2023/04/18 00:44:37;;;;;;;4.45;2.05;;;;;;;23.79;40.52;99430.75;4330543;33;31853;-61
2023/04/18 00:47:05;;;;;;;4.15;2.00;;;;;;;23.80;40.55;99429.69;4332022;33;33534;-61
2023/04/18 00:49:32;;;;;;;3.95;2.17;;;;;;;23.80;40.54;99432.41;4332084;33;33127;-62
2023/04/18 00:52:00;;;;;;;5.93;2.60;;;;;;;23.78;40.57;99426.34;4332102;33;33644;-61
2023/04/18 00:54:27;;;;;;;7.12;2.40;;;;;;;23.78;40.54;99437.25;4332004;33;33875;-61
2023/04/18 00:56:55;;;;;;;5.60;2.50;;;;;;;23.77;40.55;99427.44;4332309;33;33874;-61
2023/04/18 00:59:23;;;;;;;4.93;2.40;;;;;;;23.79;40.61;99431.59;4331956;33;33945;-61
2023/04/18 01:02:09;;;;;;;4.20;1.95;;;;;;;23.79;40.64;99428.03;4331792;33;35345;-61
2023/04/18 01:04:37;;;;;;;5.53;2.30;;;;;;;23.78;40.64;99423.63;4331954;33;33109;-61
2023/04/18 01:07:08;;;;;;;4.22;2.12;;;;;;;23.75;40.66;99422.22;4331049;33;34073;-61
2023/04/18 01:09:36;;;;;;;5.40;2.05;;;;;;;23.76;40.67;99425.78;4331931;33;34032;-61
2023/04/18 01:12:03;;;;;;;4.20;2.28;;;;;;;23.75;40.71;99429.59;4318646;33;34789;-61
2023/04/18 01:14:31;;;;;;;5.20;2.53;;;;;;;23.74;40.67;99427.94;4331732;33;34228;-61
2023/04/18 01:16:58;;;;;;;6.12;2.10;;;;;;;23.74;40.70;99426.03;4331843;33;33772;-61
2023/04/18 01:19:26;;;;;;;3.60;2.00;;;;;;;23.75;40.74;99422.22;4331765;33;33119;-61
2023/04/18 01:21:53;;;;;;;5.05;2.10;;;;;;;23.75;40.73;99424.97;4331677;33;34182;-61
2023/04/18 01:24:24;;;;;;;4.32;2.00;;;;;;;23.76;40.73;99426.59;4331801;33;34507;-61
2023/04/18 01:26:52;;;;;;;4.82;2.12;;;;;;;23.74;40.74;99426.03;4332101;33;33955;-61
2023/04/18 01:29:19;;;;;;;4.68;2.20;;;;;;;23.74;40.74;99425.22;4331523;33;34189;-61
2023/04/18 01:31:47;;;;;;;7.55;2.85;;;;;;;23.73;40.73;99429.78;4331831;33;34634;-61
2023/04/18 01:34:16;;;;;;;6.90;2.05;;;;;;;23.73;40.77;99431.69;4331833;33;33161;-61
2023/04/18 01:36:44;;;;;;;6.28;2.67;;;;;;;23.74;40.76;99433.38;4331569;33;34154;-61
2023/04/18 01:39:12;;;;;;;3.95;1.83;;;;;;;23.74;40.78;99427.94;4331680;33;34830;-61
2023/04/18 01:41:40;;;;;;;6.20;2.15;;;;;;;23.74;40.77;99428.75;4331772;33;33928;-61
2023/04/18 01:44:09;;;;;;;4.95;2.05;;;;;;;23.72;40.77;99435.50;4331566;33;33494;-61
2023/04/18 01:46:38;;;;;;;6.03;2.65;;;;;;;23.72;40.75;99432.75;4331784;33;33878;-61
2023/04/18 01:49:06;;;;;;;4.45;2.05;;;;;;;23.71;40.74;99436.56;4330424;33;34602;-61
2023/04/18 01:51:34;;;;;;;5.07;2.10;;;;;;;23.71;40.75;99436.56;4331270;33;33829;-61
2023/04/18 01:54:02;;;;;;;7.20;2.15;;;;;;;23.71;40.77;99434.66;4318238;33;34179;-61
2023/04/18 01:56:30;;;;;;;6.47;2.10;;;;;;;23.70;40.79;99441.19;4331435;33;34388;-61
2023/04/18 01:58:58;;;;;;;5.18;2.40;;;;;;;23.70;40.79;99432.19;4331572;33;33838;-61
2023/04/18 02:01:26;;;;;;;3.42;1.80;;;;;;;23.70;40.78;99437.63;4331444;33;33740;-61
2023/04/18 02:03:54;;;;;;;3.87;1.83;;;;;;;23.70;40.77;99443.09;4331413;33;34285;-61
2023/04/18 02:06:21;;;;;;;4.40;2.20;;;;;;;23.68;40.75;99435.97;4318420;33;33649;-61
2023/04/18 02:08:49;;;;;;;3.37;2.03;;;;;;;23.68;40.73;99444.13;4331531;33;34228;-61
2023/04/18 02:11:17;;;;;;;4.18;2.05;;;;;;;23.70;40.71;99443.09;4331148;33;34012;-61
2023/04/18 02:13:44;;;;;;;4.05;1.85;;;;;;;23.68;40.70;99444.13;4331183;33;33548;-61
2023/04/18 02:16:12;;;;;;;3.45;1.98;;;;;;;23.68;40.74;99440.56;4331225;33;34839;-61
2023/04/18 02:18:42;;;;;;;5.47;2.22;;;;;;;23.68;40.72;99446.84;4330863;33;34228;-61
2023/04/18 02:21:10;;;;;;;5.75;1.92;;;;;;;23.68;40.72;99443.31;4331059;33;34681;-61
2023/04/18 02:23:38;;;;;;;5.65;2.50;;;;;;;23.68;40.73;99446.03;4331011;33;33829;-61
2023/04/18 02:26:05;;;;;;;5.95;1.90;;;;;;;23.69;40.73;99447.72;4330927;33;34788;-61
2023/04/18 02:28:33;;;;;;;3.37;1.75;;;;;;;23.67;40.72;99442.47;4330964;33;34944;-61
2023/04/18 02:31:02;;;;;;;4.80;2.20;;;;;;;23.67;40.73;99445.19;4330995;33;34729;-61
2023/04/18 02:33:33;;;;;;;3.55;1.70;;;;;;;23.67;40.72;99449.81;4330784;33;34352;-61
2023/04/18 02:36:00;;;;;;;4.93;2.28;;;;;;;23.67;40.75;99447.09;4330854;33;34062;-61
2023/04/18 02:38:28;;;;;;;4.78;1.77;;;;;;;23.66;40.74;99440.81;4330749;33;34896;-61
2023/04/18 02:40:56;;;;;;;5.32;2.20;;;;;;;23.66;40.74;99446.28;4330370;33;34487;-61
2023/04/18 02:43:23;;;;;;;5.78;2.25;;;;;;;23.66;40.76;99442.72;4330759;33;33201;-61
2023/04/18 02:45:51;;;;;;;3.25;1.80;;;;;;;23.66;40.75;99442.72;4330851;33;34659;-61
2023/04/18 02:48:19;;;;;;;7.40;1.75;;;;;;;23.66;40.67;99446.28;4330494;33;34726;-61
2023/04/18 02:50:47;;;;;;;3.65;2.00;;;;;;;23.66;40.71;99449.00;4330916;33;33636;-61
2023/04/18 02:53:15;;;;;;;4.18;2.00;;;;;;;23.66;40.72;99454.44;4330731;33;33606;-61
2023/04/18 02:55:44;;;;;;;4.97;2.20;;;;;;;23.65;40.79;99452.78;4330788;33;33822;-61
2023/04/18 02:58:12;;;;;;;5.43;1.98;;;;;;;23.65;40.80;99455.50;4330683;33;33781;-61
2023/04/18 03:00:41;;;;;;;5.65;2.30;;;;;;;23.65;40.81;99457.41;4331481;33;35169;-61
2023/04/18 03:03:11;;;;;;;4.03;1.90;;;;;;;23.65;40.79;99457.41;4332865;33;32803;-61
2023/04/18 03:05:39;;;;;;;3.00;1.83;;;;;;;23.65;40.80;99457.41;4333129;33;33716;-61
2023/04/18 03:08:07;;;;;;;3.80;1.98;;;;;;;23.64;40.80;99464.75;4333001;33;33763;-61
2023/04/18 03:10:34;;;;;;;5.82;2.05;;;;;;;23.64;40.78;99462.03;4333042;33;33703;-61
2023/04/18 03:13:02;;;;;;;4.57;1.92;;;;;;;23.64;40.81;99472.94;4319788;33;34555;-61
2023/04/18 03:15:30;;;;;;;4.28;2.00;;;;;;;23.64;40.83;99463.91;4319609;33;33913;-61
2023/04/18 03:17:58;;;;;;;3.25;1.90;;;;;;;23.64;40.84;99469.34;4332769;33;33995;-61
2023/04/18 03:20:26;;;;;;;6.68;1.95;;;;;;;23.63;40.83;99460.31;4332990;33;33689;-61
2023/04/18 03:22:55;;;;;;;4.22;2.05;;;;;;;23.63;40.84;99470.38;4332647;33;33955;-61
2023/04/18 03:25:23;;;;;;;3.40;1.92;;;;;;;23.62;40.85;99469.56;4332866;33;33727;-60
2023/04/18 03:27:51;;;;;;;4.78;2.17;;;;;;;23.62;40.83;99469.56;4332979;33;33911;-61
2023/04/18 03:30:19;;;;;;;4.62;2.28;;;;;;;23.61;40.81;99462.47;4332555;33;33949;-61
2023/04/18 03:32:48;;;;;;;5.07;1.98;;;;;;;23.62;40.80;99468.75;4319722;33;34189;-61
2023/04/18 03:35:15;;;;;;;7.95;2.20;;;;;;;23.61;40.78;99473.34;4332764;33;34074;-61
2023/04/18 03:37:43;;;;;;;5.25;2.00;;;;;;;23.62;40.78;99468.75;4332453;33;34063;-61
2023/04/18 03:40:12;;;;;;;4.90;2.10;;;;;;;23.62;40.78;99471.47;4332841;33;33836;-61
2023/04/18 03:42:40;;;;;;;3.33;1.80;;;;;;;23.62;40.76;99475.00;4332638;33;33468;-61
2023/04/18 03:45:10;;;;;;;4.10;1.87;;;;;;;23.60;40.75;99471.72;4332756;33;34873;-61
2023/04/18 03:47:37;;;;;;;3.70;1.95;;;;;;;23.61;40.73;99461.63;4332789;33;34300;-61
2023/04/18 03:50:05;;;;;;;5.18;2.03;;;;;;;23.61;40.73;99464.38;4332646;33;34306;-61
2023/04/18 03:52:33;;;;;;;5.03;2.28;;;;;;;23.59;40.73;99464.56;4332670;33;34310;-61
2023/04/18 03:55:03;;;;;;;4.28;1.90;;;;;;;23.61;40.72;99469.81;4332693;33;33946;-61
2023/04/18 03:57:32;;;;;;;6.75;1.80;;;;;;;23.61;40.69;99467.91;4332529;33;33644;-61
2023/04/18 04:00:03;;;;;;;;;;;;;;;23.60;40.73;99471.72;4332966;33;34421;-61
2023/04/18 04:02:41;;;;;;;4.97;1.58;;;;;;;23.69;40.54;99464.06;4332005;33;33547;-61
2023/04/18 04:05:10;;;;;;;2.72;1.67;;;;;;;23.62;40.64;99464.12;4330158;33;33604;-61
2023/04/18 04:07:38;;;;;;;3.20;1.90;;;;;;;23.59;40.73;99474.66;4318862;33;33995;-61
2023/04/18 04:10:06;;;;;;;4.85;1.98;;;;;;;23.57;40.77;99477.63;4332174;33;35034;-61
2023/04/18 04:12:34;;;;;;;3.70;1.65;;;;;;;23.57;40.78;99479.50;4330922;33;34122;-61
2023/04/18 04:15:02;;;;;;;3.17;1.90;;;;;;;23.57;40.77;99472.16;4332183;33;33665;-61
2023/04/18 04:17:30;;;;;;;4.65;1.60;;;;;;;23.57;40.77;99476.78;4330422;33;33824;-61
2023/04/18 04:19:58;;;;;;;3.37;1.90;;;;;;;23.58;40.78;99484.72;4318709;33;33748;-62
2023/04/18 04:22:26;;;;;;;3.95;1.60;;;;;;;23.57;40.77;99483.06;4332239;33;33536;-61
2023/04/18 04:24:56;;;;;;;3.20;1.70;;;;;;;23.57;40.77;99490.41;4332581;33;33765;-61
2023/04/18 04:27:25;;;;;;;3.45;1.50;;;;;;;23.58;40.76;99487.44;4330855;33;34430;-61
2023/04/18 04:29:55;;;;;;;3.45;1.70;;;;;;;23.59;40.75;99488.25;4332567;33;32422;-61
2023/04/18 04:32:23;;;;;;;5.00;1.85;;;;;;;23.58;40.76;99492.88;4332143;33;32993;-61
2023/04/18 04:34:52;;;;;;;4.60;1.83;;;;;;;23.57;40.76;99490.41;4332457;33;33619;-61
2023/04/18 04:37:20;;;;;;;7.12;2.05;;;;;;;23.57;40.77;99491.22;4332501;33;33913;-61
2023/04/18 04:39:51;;;;;;;4.18;2.20;;;;;;;23.57;40.78;99491.22;4331945;33;34029;-61
2023/04/18 04:42:23;;;;;;;4.03;1.90;;;;;;;23.58;40.75;99497.50;4332355;33;33947;-61
2023/04/18 04:44:53;;;;;;;3.20;1.70;;;;;;;23.58;40.75;99498.34;4319382;33;33941;-61
2023/04/18 04:47:21;;;;;;;4.95;1.90;;;;;;;23.57;40.77;99504.84;4332165;33;34633;-60
2023/04/18 04:49:48;;;;;;;6.05;2.08;;;;;;;23.57;40.73;99504.84;4332016;33;34735;-60
2023/04/18 04:52:16;;;;;;;7.62;1.65;;;;;;;23.57;40.71;99504.84;4332141;33;33423;-61
2023/04/18 04:54:45;;;;;;;3.30;1.58;;;;;;;23.59;40.69;99510.06;4318600;33;32611;-59
2023/04/18 04:57:14;;;;;;;5.65;2.10;;;;;;;23.60;40.65;99509.00;4332003;33;33803;-60
2023/04/18 04:59:43;;;;;;;3.50;1.70;;;;;;;23.59;40.58;99508.16;4331360;33;33711;-61
2023/04/18 05:02:11;;;;;;;5.10;1.83;;;;;;;23.60;40.61;99507.13;4332202;33;33199;-60
2023/04/18 05:04:54;;;;;;;4.22;1.90;;;;;;;23.59;40.58;99518.22;4329722;33;33501;-61
2023/04/18 05:07:22;;;;;;;7.43;2.00;;;;;;;23.60;40.56;99519.91;4331876;33;34492;-60
2023/04/18 05:09:52;;;;;;;4.00;1.80;;;;;;;23.58;40.57;99522.84;4331972;33;34055;-61
2023/04/18 05:12:19;;;;;;;5.78;1.92;;;;;;;23.59;40.55;99520.94;4331923;33;33335;-60
2023/04/18 05:14:47;;;;;;;4.32;1.67;;;;;;;23.59;40.51;99519.03;4332021;33;34039;-60
2023/04/18 05:17:14;;;;;;;3.28;1.62;;;;;;;23.59;40.52;99526.38;4331897;33;34777;-61
2023/04/18 05:19:43;;;;;;;5.28;1.60;;;;;;;23.58;40.55;99524.75;4318868;33;33990;-60
2023/04/18 05:22:10;;;;;;;4.53;2.00;;;;;;;23.57;40.56;99529.34;4331909;33;33739;-61
2023/04/18 05:24:38;;;;;;;4.30;2.00;;;;;;;23.57;40.53;99523.91;4331574;33;33975;-60
2023/04/18 05:27:06;;;;;;;4.28;1.87;;;;;;;23.56;40.50;99527.72;4331696;33;34059;-60
2023/04/18 05:29:34;;;;;;;3.60;1.80;;;;;;;23.57;40.50;99528.53;4318522;33;34224;-60
2023/04/18 05:32:02;;;;;;;3.62;1.90;;;;;;;23.57;40.44;99529.34;4332059;33;33521;-61
2023/04/18 05:34:30;;;;;;;3.72;1.85;;;;;;;23.57;40.39;99532.09;4318247;33;34028;-61
2023/04/18 05:36:58;;;;;;;5.22;2.03;;;;;;;23.59;40.36;99540.00;4331716;33;34055;-60
2023/04/18 05:39:26;;;;;;;3.22;1.75;;;;;;;23.58;40.40;99535.63;4318413;33;33840;-61
2023/04/18 05:41:53;;;;;;;4.47;1.90;;;;;;;23.56;40.41;99538.59;4331605;33;33199;-60
2023/04/18 05:44:23;;;;;;;3.50;1.80;;;;;;;23.57;40.43;99542.16;4331734;33;35139;-61
2023/04/18 05:46:50;;;;;;;3.55;1.58;;;;;;;23.57;40.43;99547.59;4331629;33;34113;-60
2023/04/18 05:49:18;;;;;;;3.72;1.98;;;;;;;23.58;40.32;99544.63;4331138;33;34581;-61
2023/04/18 05:51:48;;;;;;;3.65;1.92;;;;;;;23.59;40.33;99545.47;4331533;33;33055;-60
2023/04/18 05:54:16;;;;;;;5.03;1.87;;;;;;;23.59;40.32;99538.13;4331341;33;33996;-62
2023/04/18 05:56:43;;;;;;;4.07;1.80;;;;;;;23.63;40.32;99541.19;4331499;33;34115;-60
2023/04/18 05:59:11;;;;;;;6.50;2.33;;;;;;;23.61;40.37;99537.91;4331405;33;33937;-60
2023/04/18 06:01:38;;;;;;;6.50;2.12;;;;;;;23.62;40.40;99539.56;4331199;33;33586;-61
2023/04/18 06:04:07;;;;;;;5.12;2.15;;;;;;;23.64;40.36;99545.63;4331277;33;34148;-60
2023/04/18 06:06:35;;;;;;;8.30;1.98;;;;;;;23.65;40.30;99550.84;4331405;33;34829;-60
2023/04/18 06:09:02;;;;;;;8.23;1.92;;;;;;;23.67;40.29;99554.16;4331370;33;33577;-60
2023/04/18 06:11:32;;;;;;;4.18;1.70;;;;;;;23.67;40.32;99547.88;4331028;33;33261;-60
2023/04/18 06:14:00;;;;;;;2.80;1.70;;;;;;;23.69;40.34;99551.22;4331263;33;34310;-61
2023/04/18 06:16:28;;;;;;;5.35;1.80;;;;;;;23.70;40.36;99550.16;4331196;33;34169;-61
2023/04/18 06:18:56;;;;;;;5.43;2.00;;;;;;;23.71;40.36;99553.69;4330789;33;34839;-61
2023/04/18 06:21:27;;;;;;;4.20;1.65;;;;;;;23.72;40.36;99553.44;4331019;33;33661;-60
2023/04/18 06:23:55;;;;;;;3.72;1.87;;;;;;;23.73;40.34;99557.00;4331027;33;34473;-61
2023/04/18 06:26:23;;;;;;;4.35;1.80;;;;;;;23.76;40.34;99562.81;4331100;33;34817;-60
2023/04/18 06:28:50;;;;;;;5.20;1.70;;;;;;;23.76;40.33;99559.28;4317474;33;34172;-60
2023/04/18 06:31:18;;;;;;;2.85;1.48;;;;;;;23.77;40.33;99559.03;4330230;33;32958;-61
2023/04/18 06:33:45;;;;;;;3.78;1.98;;;;;;;23.77;40.31;99567.19;4330741;33;33511;-61
2023/04/18 06:36:13;;;;;;;2.97;1.60;;;;;;;23.79;40.32;99561.53;4331926;33;33566;-61
2023/04/18 06:38:41;;;;;;;3.53;1.62;;;;;;;23.80;40.31;99568.63;4332958;33;34404;-61
2023/04/18 06:41:08;;;;;;;4.65;2.00;;;;;;;23.80;40.27;99555.84;4332746;33;34416;-61
2023/04/18 06:43:36;;;;;;;4.43;1.92;;;;;;;23.82;40.25;99563.78;4319491;33;34201;-61
2023/04/18 06:46:04;;;;;;;4.10;1.70;;;;;;;23.81;40.25;99567.56;4323787;33;34023;-60
2023/04/18 06:48:32;;;;;;;4.47;2.22;;;;;;;23.82;40.23;99566.50;4319705;33;34054;-61
2023/04/18 06:50:59;;;;;;;5.82;2.00;;;;;;;23.82;40.18;99566.50;4332864;33;33772;-60
2023/04/18 06:53:27;;;;;;;5.85;2.10;;;;;;;23.82;40.15;99566.50;4332758;33;33928;-60
2023/04/18 06:55:54;;;;;;;5.68;1.90;;;;;;;23.82;40.12;99558.31;4332927;33;33526;-60
2023/04/18 06:58:22;;;;;;;5.45;1.85;;;;;;;23.83;40.09;99570.91;4332965;33;34228;-60
2023/04/18 07:00:50;;;;;;;3.80;1.73;;;;;;;23.82;40.06;99570.03;4332616;33;34244;-61
2023/04/18 07:03:18;;;;;;;5.53;1.70;;;;;;;23.82;40.03;99574.66;4332935;33;34371;-60
2023/04/18 07:05:46;;;;;;;3.83;1.80;;;;;;;23.82;40.01;99571.94;4332853;33;34005;-60
2023/04/18 07:08:14;;;;;;;3.40;1.70;;;;;;;23.82;39.95;99572.78;4332814;33;34202;-60
2023/04/18 07:10:41;;;;;;;3.53;1.77;;;;;;;23.82;39.94;99575.50;4332355;33;34435;-60
2023/04/18 07:13:09;;;;;;;6.37;2.12;;;;;;;23.82;39.90;99580.13;4304917;33;32883;-60
2023/04/18 07:15:36;;;;;;;4.43;1.60;;;;;;;23.81;39.86;99581.19;4318081;33;33632;-61
2023/04/18 07:18:04;;;;;;;3.45;1.70;;;;;;;23.82;39.85;99574.66;4304922;33;34361;-60
2023/04/18 07:20:31;;;;;;;2.17;1.40;;;;;;;23.80;39.85;99577.62;4318054;33;33609;-60
2023/04/18 07:22:59;;;;;;;2.55;1.37;;;;;;;23.81;39.86;99582.00;4317935;33;34636;-60
2023/04/18 07:25:26;;;;;;;3.60;1.70;;;;;;;23.81;39.86;99570.28;4318269;33;34505;-60
2023/04/18 07:27:54;;;;;;;4.07;1.80;;;;;;;23.81;39.85;99589.37;4304925;33;33818;-61
2023/04/18 07:30:22;;;;;;;4.20;1.65;;;;;;;23.80;39.86;99583.09;4320099;33;33491;-60
2023/04/18 07:32:50;;;;;;;4.75;1.90;;;;;;;23.79;39.86;99589.59;4332529;33;34969;-60
2023/04/18 07:35:17;;;;;;;3.33;1.65;;;;;;;23.80;39.86;99596.72;4332679;33;35009;-61
2023/04/18 07:37:45;;;;;;;3.28;1.60;;;;;;;23.79;39.86;99591.50;4332344;33;34277;-60
2023/04/18 07:40:12;;;;;;;3.25;1.83;;;;;;;23.78;39.84;99596.13;4332568;33;34337;-60
2023/04/18 07:42:42;;;;;;;2.67;1.60;;;;;;;23.79;39.82;99588.78;4332837;33;34081;-59
2023/04/18 07:45:09;;;;;;;4.37;1.87;;;;;;;23.78;39.81;99592.53;4332346;33;34104;-61
2023/04/18 07:47:37;;;;;;;3.92;1.60;;;;;;;23.77;39.81;99596.34;4332504;33;33922;-61
2023/04/18 07:50:05;;;;;;;2.95;1.52;;;;;;;23.77;39.81;99604.50;4332725;33;33312;-62
2023/04/18 07:52:33;;;;;;;3.08;1.65;;;;;;;23.76;39.81;99598.25;4332338;33;33971;-61
2023/04/18 07:55:00;;;;;;;3.78;1.80;;;;;;;23.76;39.80;99600.97;4332514;33;35417;-61
2023/04/18 07:57:28;;;;;;;2.87;1.55;;;;;;;23.77;39.78;99601.78;4332347;33;33839;-62
2023/04/18 07:59:55;;;;;;;3.17;1.60;;;;;;;23.77;39.80;99601.78;4332338;33;33933;-61
2023/04/18 08:02:23;;;;;;;4.57;1.75;;;;;;;23.75;39.79;99606.66;4332546;33;33947;-61
2023/04/18 08:04:51;;;;;;;4.72;1.67;;;;;;;23.74;39.81;99600.38;4332524;33;34048;-61
2023/04/18 08:07:19;;;;;;;6.12;2.25;;;;;;;23.75;39.82;99601.22;4332232;33;34502;-61
2023/04/18 08:09:47;;;;;;;4.30;1.58;;;;;;;23.74;39.82;99607.72;4332372;33;34350;-61
2023/04/18 08:12:14;;;;;;;3.95;1.98;;;;;;;23.73;39.82;99611.47;4332429;33;34624;-61
2023/04/18 08:14:42;;;;;;;8.52;1.60;;;;;;;23.73;39.83;99601.41;4332335;33;33706;-62
2023/04/18 08:17:09;;;;;;;8.35;2.25;;;;;;;23.74;39.80;99614.00;4332427;33;33637;-61
2023/04/18 08:19:37;;;;;;;3.35;1.75;;;;;;;23.73;39.71;99614.22;4332361;33;33485;-61
2023/04/18 08:22:09;;;;;;;7.37;1.98;;;;;;;23.73;39.73;99617.75;4332000;33;34740;-61
2023/04/18 08:24:37;;;;;;;7.32;2.15;;;;;;;23.73;39.72;99614.22;4332296;33;34107;-61
2023/04/18 08:27:04;;;;;;;6.18;2.20;;;;;;;23.74;39.64;99608.56;4332222;33;33757;-61
2023/04/18 08:29:32;;;;;;;4.87;2.40;;;;;;;23.74;39.66;99614.00;4332595;33;33121;-62
2023/04/18 08:32:00;;;;;;;6.50;2.08;;;;;;;23.73;39.64;99623.22;4332315;33;33933;-61
2023/04/18 08:34:28;;;;;;;7.05;1.92;;;;;;;23.74;39.56;99621.34;4332055;33;34636;-61
2023/04/18 08:36:55;;;;;;;6.10;2.30;;;;;;;23.71;39.31;99621.81;4332273;33;34064;-61
2023/04/18 08:39:23;;;;;;;5.55;2.33;;;;;;;23.70;38.84;99628.31;4332291;33;33352;-61
2023/04/18 08:41:58;;;;;;;3.65;1.67;;;;;;;23.66;38.74;99623.31;4332041;33;34011;-61
2023/04/18 08:44:26;;;;;;;5.72;1.98;;;;;;;23.66;38.78;99623.31;4332154;33;34973;-61
2023/04/18 08:46:54;;;;;;;3.72;2.17;;;;;;;23.65;38.58;99620.84;4332024;33;33955;-61
2023/04/18 08:49:23;;;;;;;6.20;2.40;;;;;;;23.64;38.64;99622.75;4331890;33;33737;-61
2023/04/18 08:51:52;;;;;;;5.03;2.20;;;;;;;23.62;38.44;99633.00;4332157;33;33946;-60
2023/04/18 08:54:21;;;;;;;6.30;2.17;;;;;;;23.62;38.40;99627.53;4332175;33;34743;-61
2023/04/18 08:57:09;;;;;;;5.95;1.83;;;;;;;23.62;38.63;99622.09;4332211;33;34124;-61
2023/04/18 08:59:38;;;;;;;4.12;1.87;;;;;;;23.64;38.77;99621.88;4330552;33;33362;-62
2023/04/18 09:02:07;;;;;;;7.90;2.33;;;;;;;23.62;38.86;99624.81;4331203;33;34979;-62
2023/04/18 09:04:40;;;;;;;4.72;2.25;;;;;;;23.62;38.86;99627.53;4331478;33;33991;-61
2023/04/18 09:07:09;;;;;;;5.85;2.15;;;;;;;23.60;38.72;99632.41;4330623;33;34239;-63
2023/04/18 09:09:46;;;;;;;5.70;1.70;;;;;;;23.59;38.17;99628.00;4330490;33;33077;-62
2023/04/18 09:12:25;;;;;;;8.05;2.20;;;;;;;23.59;38.15;99628.00;4321433;33;32506;-61
2023/04/18 09:14:56;;;;;;;5.20;2.58;;;;;;;23.56;38.13;99623.03;4325137;33;34985;-63
2023/04/18 09:17:33;;;;;;;6.00;2.62;;;;;;;23.56;38.18;99625.75;4331313;33;33649;-62
2023/04/18 09:20:05;;;;;;;4.35;2.30;;;;;;;23.59;38.10;99628.00;4329061;33;33701;-63
2023/04/18 09:22:45;;;;;;;4.12;2.25;;;;;;;23.55;37.74;99621.38;4328548;33;32912;-61
2023/04/18 09:25:39;;;;;;;6.43;2.00;;;;;;;23.54;37.84;99616.97;4329999;33;34565;-62
2023/04/18 09:28:30;;;;;;;4.32;2.10;;;;;;;23.55;37.78;99621.38;4319116;33;33555;-64
2023/04/18 09:31:08;;;;;;;3.55;2.00;;;;;;;23.54;37.26;99625.13;4331808;33;32970;-62
2023/04/18 09:33:36;;;;;;;4.32;2.22;;;;;;;23.49;37.21;99625.00;4330835;33;34232;-63
2023/04/18 09:36:16;;;;;;;5.55;2.03;;;;;;;23.47;36.86;99631.75;4317179;33;34082;-62
2023/04/18 09:38:44;;;;;;;5.40;2.47;;;;;;;23.45;36.67;99634.69;4329075;33;34039;-62
2023/04/18 09:41:14;;;;;;;7.03;2.50;;;;;;;23.39;36.84;99628.28;4331139;33;33194;-63
2023/04/18 09:43:45;;;;;;;5.57;2.40;;;;;;;23.37;36.96;99619.53;4331236;33;33875;-63
2023/04/18 09:46:13;;;;;;;5.47;2.33;;;;;;;23.38;36.92;99640.25;4318253;33;34833;-64
2023/04/18 09:48:40;;;;;;;4.37;2.08;;;;;;;23.37;36.45;99638.59;4330340;33;33887;-63
2023/04/18 09:51:13;;;;;;;4.30;2.00;;;;;;;23.34;36.10;99624.59;4335875;33;33333;-62
2023/04/18 09:53:46;;;;;;;4.62;2.12;;;;;;;23.32;35.95;99633.00;4346252;33;33741;-63
2023/04/18 09:56:18;;;;;;;4.65;2.10;;;;;;;23.29;35.95;99630.72;4339924;33;34037;-63
2023/04/18 09:58:46;;;;;;;3.72;2.00;;;;;;;23.26;35.76;99622.19;4309950;33;33881;-63
2023/04/18 10:01:14;;;;;;;4.95;2.03;;;;;;;23.22;35.47;99627.25;4331479;33;33468;-62
2023/04/18 10:03:44;;;;;;;5.35;2.05;;;;;;;23.21;35.30;99630.19;4346053;33;34128;-62
2023/04/18 10:06:13;;;;;;;;;;;;;;;23.18;35.53;99620.63;4332133;33;34134;-62
2023/04/18 10:08:40;;;;;;;5.93;1.80;;;;;;;23.28;35.53;99622.78;4320183;33;35038;-63
2023/04/18 10:11:08;;;;;;;3.22;1.95;;;;;;;23.20;35.81;99617.66;4319191;33;32141;-62
2023/04/18 10:13:37;;;;;;;5.28;2.03;;;;;;;23.19;35.85;99621.44;4319661;33;34664;-62
2023/04/18 10:16:05;;;;;;;5.30;2.15;;;;;;;23.17;35.83;99621.66;4324396;33;34099;-63
2023/04/18 10:18:34;;;;;;;4.22;2.50;;;;;;;23.16;35.28;99620.84;4333186;33;34442;-63
2023/04/18 10:21:02;;;;;;;4.35;2.30;;;;;;;23.14;35.33;99622.97;4321813;33;33489;-64
2023/04/18 10:23:34;;;;;;;4.78;2.65;;;;;;;23.14;35.09;99622.13;4336504;33;33822;-63
2023/04/18 10:26:06;;;;;;;5.45;1.90;;;;;;;23.10;34.90;99626.38;4333044;33;34067;-63
2023/04/18 10:29:07;;;;;;;7.85;2.50;;;;;;;23.08;34.60;99620.31;4339287;33;34982;-62
2023/04/18 10:31:37;;;;;;;5.43;2.00;;;;;;;23.11;34.97;99615.25;4323996;33;33634;-62
2023/04/18 10:34:05;;;;;;;4.87;2.00;;;;;;;23.07;35.01;99608.59;4345681;33;33937;-63
2023/04/18 10:36:33;;;;;;;5.12;2.12;;;;;;;23.09;34.96;99624.72;4343027;33;34038;-62
2023/04/18 10:39:18;;;;;;;4.65;2.30;;;;;;;23.06;35.04;99617.81;4341892;33;34016;-63
2023/04/18 10:41:50;;;;;;;4.28;1.98;;;;;;;23.05;35.12;99624.34;4322702;33;34173;-62
2023/04/18 10:44:18;;;;;;;5.53;1.83;;;;;;;23.07;35.17;99618.66;4332995;33;34039;-63
2023/04/18 10:46:52;;;;;;;4.75;2.10;;;;;;;23.06;35.28;99623.28;4333082;33;34003;-63
2023/04/18 10:49:20;;;;;;;4.15;1.90;;;;;;;23.07;35.27;99616.75;4342843;33;34193;-63
2023/04/18 10:51:57;;;;;;;4.93;1.95;;;;;;;23.07;35.15;99614.03;4346435;33;33582;-63
2023/04/18 10:54:29;;;;;;;2.58;1.52;;;;;;;23.08;35.16;99612.16;4343754;33;34944;-63
2023/04/18 10:56:58;;;;;;;5.25;2.10;;;;;;;23.08;35.17;99604.84;4347645;33;34104;-64
2023/04/18 10:59:26;;;;;;;4.32;1.92;;;;;;;23.08;35.31;99607.56;4345815;33;33862;-63
2023/04/18 11:01:55;;;;;;;4.28;2.03;;;;;;;23.09;35.45;99609.22;4332829;33;32607;-62
2023/04/18 11:04:23;;;;;;;4.50;1.90;;;;;;;23.09;35.41;99595.59;4332696;33;34872;-63
2023/04/18 11:06:54;;;;;;;3.08;2.00;;;;;;;23.12;35.23;99610.63;4345427;33;33685;-63
2023/04/18 11:09:22;;;;;;;3.42;1.90;;;;;;;23.08;34.97;99602.13;4347416;33;34463;-62
2023/04/18 11:12:09;;;;;;;4.68;2.37;;;;;;;23.09;34.78;99602.94;4338541;33;34043;-61
2023/04/18 11:14:41;;;;;;;4.03;1.98;;;;;;;23.08;34.96;99599.41;4331284;33;34674;-62
2023/04/18 11:17:22;;;;;;;3.65;2.12;;;;;;;23.06;35.06;99606.94;4347609;33;34581;-62
2023/04/18 11:19:58;;;;;;;3.60;1.87;;;;;;;23.06;35.00;99606.13;4329733;33;33768;-63
2023/04/18 11:22:26;;;;;;;4.55;2.10;;;;;;;23.04;35.05;99609.06;4335845;33;33486;-63
2023/04/18 11:25:00;;;;;;;4.62;2.17;;;;;;;23.04;35.16;99602.81;4347608;33;34761;-62
2023/04/18 11:27:28;;;;;;;2.92;2.08;;;;;;;23.03;35.36;99612.81;4328716;33;34606;-62
2023/04/18 11:29:56;;;;;;;4.97;1.85;;;;;;;23.06;35.45;99606.94;4343205;33;34323;-63
2023/04/18 11:32:23;;;;;;;3.40;2.03;;;;;;;23.06;35.48;99604.22;4335155;33;33427;-63
2023/04/18 11:34:54;;;;;;;3.97;2.30;;;;;;;23.07;35.58;99608.59;4347380;33;34004;-63
2023/04/18 11:37:21;;;;;;;3.00;2.00;;;;;;;23.08;35.67;99613.00;4344642;33;34791;-62
2023/04/18 11:39:51;;;;;;;4.62;2.30;;;;;;;23.11;35.68;99612.53;4346091;33;33963;-62
2023/04/18 11:42:18;;;;;;;4.15;2.03;;;;;;;23.09;35.65;99609.22;4333755;33;33157;-63